Time;durP1;ratioP1;P1;durP2;ratioP2;P2;SDS_P1;SDS_P2;PMS_P1;PMS_P2;Temp;Humidity;BMP_temperature;BMP_pressure;BME280_temperature;BME280_humidity;BME280_pressure;Samples;Min_cycle;Max_cycle;Signal;HPM_P1;HPM_P2
2022/08/18 00:00:17;;;;;;;10.03;5.67;;;;;;;18.50;100.00;97699.42;1826427;78;20885;-59
2022/08/18 00:02:44;;;;;;;5.50;5.00;;;;;;;18.46;100.00;97705.33;1814523;78;21027;-58
2022/08/18 00:05:13;;;;;;;8.43;5.00;;;;;;;18.43;100.00;97700.56;1821293;78;21394;-59
2022/08/18 00:07:40;;;;;;;6.10;4.70;;;;;;;18.41;100.00;97697.41;1812343;78;21231;-58
2022/08/18 00:10:08;;;;;;;8.85;5.47;;;;;;;18.41;100.00;97697.41;1829033;78;21332;-59
2022/08/18 00:12:38;;;;;;;10.45;5.65;;;;;;;18.40;100.00;97697.18;1828555;78;21411;-58
2022/08/18 00:15:07;;;;;;;8.48;5.65;;;;;;;18.37;100.00;97697.90;1824963;78;20921;-59
2022/08/18 00:17:35;;;;;;;7.28;5.65;;;;;;;18.32;100.00;97700.27;1827617;78;21514;-58
2022/08/18 00:20:04;;;;;;;7.62;5.35;;;;;;;18.27;100.00;97697.04;1821454;78;21226;-59
2022/08/18 00:22:31;;;;;;;8.08;5.70;;;;;;;18.23;100.00;97707.01;1812792;78;20951;-59
2022/08/18 00:24:58;;;;;;;8.13;5.50;;;;;;;18.24;100.00;97704.50;1817770;78;20877;-58
2022/08/18 00:27:27;;;;;;;6.72;5.90;;;;;;;18.23;100.00;97701.59;1817670;78;20947;-58
2022/08/18 00:29:54;;;;;;;6.60;5.28;;;;;;;18.24;100.00;97707.21;1827806;77;20968;-58
2022/08/18 00:32:32;;;;;;;8.15;5.70;;;;;;;18.22;100.00;97706.77;1822932;78;21203;-58
2022/08/18 00:35:12;;;;;;;11.43;5.53;;;;;;;18.17;100.00;97700.24;1817531;78;20967;-58
2022/08/18 00:37:41;;;;;;;6.62;5.80;;;;;;;18.19;100.00;97700.68;1823933;78;20841;-58
2022/08/18 00:40:11;;;;;;;8.38;6.05;;;;;;;18.19;100.00;97704.19;1827770;78;21007;-58
2022/08/18 00:42:48;;;;;;;9.25;6.40;;;;;;;18.22;100.00;97710.84;1818895;78;20846;-58
2022/08/18 00:45:20;;;;;;;7.40;6.30;;;;;;;18.25;100.00;97708.80;1809425;78;21758;-59
2022/08/18 00:47:47;;;;;;;6.80;6.10;;;;;;;18.27;100.00;97701.11;1828172;78;20870;-59
2022/08/18 00:50:24;;;;;;;9.03;5.75;;;;;;;18.30;100.00;97705.84;1825507;78;20913;-59
2022/08/18 00:52:58;;;;;;;10.30;6.85;;;;;;;18.32;100.00;97708.98;1806421;78;20897;-59
2022/08/18 00:55:26;;;;;;;8.83;6.80;;;;;;;18.32;100.00;97703.57;1828034;78;21016;-59
2022/08/18 00:57:56;;;;;;;12.63;7.10;;;;;;;18.32;100.00;97706.28;1825197;78;21118;-59
2022/08/18 01:00:23;;;;;;;10.00;6.45;;;;;;;18.33;100.00;97703.77;1813807;78;20944;-59
2022/08/18 01:02:53;;;;;;;9.33;6.33;;;;;;;18.35;100.00;97705.56;1804826;78;20955;-59
2022/08/18 01:05:39;;;;;;;8.15;6.37;;;;;;;18.35;100.00;97706.92;1825405;78;20913;-59
2022/08/18 01:08:10;;;;;;;13.08;7.75;;;;;;;18.37;100.00;97710.86;1816023;78;20868;-58
2022/08/18 01:10:38;;;;;;;9.20;7.25;;;;;;;18.33;100.00;97701.06;1792524;78;21159;-58
2022/08/18 01:13:05;;;;;;;7.53;6.58;;;;;;;18.33;100.00;97701.06;1818361;78;20880;-59
2022/08/18 01:15:32;;;;;;;10.60;7.17;;;;;;;18.36;100.00;97708.51;1827659;78;20991;-59
2022/08/18 01:21:49;;;;;;;11.65;7.40;;;;;;;18.37;100.00;97707.39;1806152;78;20900;-59
2022/08/18 01:23:29;;;;;;;8.70;7.10;;;;;;;18.36;100.00;97703.09;1824967;78;21998;-58
2022/08/18 01:25:59;;;;;;;10.15;7.87;;;;;;;18.36;100.00;97697.66;1804695;78;20824;-59
2022/08/18 01:28:37;;;;;;;9.33;7.50;;;;;;;18.37;100.00;97704.67;1821487;78;20873;-58
2022/08/18 01:31:06;;;;;;;11.68;7.53;;;;;;;18.39;100.00;97703.75;1821897;78;21070;-58
2022/08/18 01:33:39;;;;;;;9.10;7.28;;;;;;;18.40;100.00;97704.75;1809096;78;20956;-58
2022/08/18 01:36:16;;;;;;;11.03;6.70;;;;;;;18.42;100.00;97704.39;1827309;78;21119;-58
2022/08/18 01:38:46;;;;;;;13.88;7.90;;;;;;;18.43;100.00;97700.56;1823878;78;20908;-58
2022/08/18 01:41:13;;;;;;;11.55;7.42;;;;;;;18.43;100.00;97697.84;1820497;78;20829;-58
2022/08/18 01:43:40;;;;;;;11.18;7.65;;;;;;;18.42;100.00;97701.69;1816585;78;20900;-58
2022/08/18 01:46:07;;;;;;;7.90;7.10;;;;;;;18.42;100.00;97698.97;1821630;78;20885;-58
2022/08/18 01:48:35;;;;;;;7.67;6.60;;;;;;;18.42;100.00;97690.84;1828711;77;21368;-58
2022/08/18 01:51:03;;;;;;;7.72;6.95;;;;;;;18.42;100.00;97696.27;1824218;77;20995;-59
2022/08/18 01:53:30;;;;;;;9.85;6.80;;;;;;;18.42;100.00;97697.61;1827906;78;20912;-58
2022/08/18 01:55:56;;;;;;;8.78;7.25;;;;;;;18.43;100.00;97704.63;1817651;78;21374;-58
2022/08/18 01:58:26;;;;;;;8.75;7.17;;;;;;;18.46;100.00;97706.69;1820238;78;20963;-58
2022/08/18 02:00:53;;;;;;;10.72;7.20;;;;;;;18.46;100.00;97713.47;1810465;77;21116;-58
2022/08/18 02:03:20;;;;;;;8.53;6.85;;;;;;;18.45;100.00;97715.91;1824903;78;21016;-58
2022/08/18 02:05:52;;;;;;;9.18;6.90;;;;;;;18.39;100.00;97718.67;1815158;78;20832;-58
2022/08/18 02:08:18;;;;;;;12.07;7.75;;;;;;;18.36;100.00;97716.64;1821004;78;21032;-59
2022/08/18 02:10:44;;;;;;;8.48;7.30;;;;;;;18.37;100.00;97720.94;1820025;78;21150;-58
2022/08/18 02:13:11;;;;;;;9.33;7.10;;;;;;;18.37;100.00;97714.16;1825809;78;21767;-58
2022/08/18 02:15:38;;;;;;;9.70;6.70;;;;;;;18.37;100.00;97721.70;1823596;78;21683;-58
2022/08/18 02:18:05;;;;;;;11.33;6.70;;;;;;;18.39;100.00;97712.66;1828411;78;20944;-58
2022/08/18 02:20:31;;;;;;;9.98;6.80;;;;;;;18.41;100.00;97717.75;1816214;78;20998;-58
2022/08/18 02:22:58;;;;;;;7.47;6.33;;;;;;;18.42;100.00;97720.66;1809367;78;21006;-59
2022/08/18 02:25:24;;;;;;;10.58;7.20;;;;;;;18.44;100.00;97719.78;1825088;78;21223;-58
2022/08/18 02:27:51;;;;;;;10.30;7.00;;;;;;;18.46;100.00;97712.11;1816953;78;20900;-58
2022/08/18 02:30:18;;;;;;;10.40;7.12;;;;;;;18.48;100.00;97719.32;1808175;78;20927;-59
2022/08/18 02:32:45;;;;;;;7.78;6.62;;;;;;;18.51;100.00;97713.22;1824625;78;20932;-58
2022/08/18 02:35:11;;;;;;;8.05;7.12;;;;;;;18.52;100.00;97712.06;1814199;78;20909;-58
2022/08/18 02:37:41;;;;;;;11.12;7.35;;;;;;;18.55;100.00;97710.58;1814459;78;21109;-58
2022/08/18 02:40:11;;;;;;;8.70;7.53;;;;;;;18.55;100.00;97705.95;1820498;77;20885;-59
2022/08/18 02:42:38;;;;;;;10.18;7.87;;;;;;;18.50;100.00;97705.41;1816931;78;20962;-58
2022/08/18 02:45:06;;;;;;;10.98;7.45;;;;;;;18.45;100.00;97705.06;1804994;78;20974;-58
2022/08/18 02:47:33;;;;;;;10.53;7.10;;;;;;;18.40;100.00;97702.60;1824885;78;20971;-58
2022/08/18 02:50:00;;;;;;;8.88;6.85;;;;;;;18.36;100.00;97709.86;1821327;78;21465;-58
2022/08/18 02:52:32;;;;;;;8.73;7.80;;;;;;;18.29;100.00;97706.97;1813257;78;21494;-58
2022/08/18 02:55:00;;;;;;;11.25;7.95;;;;;;;18.25;100.00;97713.63;1825715;77;20845;-58
2022/08/18 02:57:27;;;;;;;10.78;7.15;;;;;;;18.27;100.00;97716.02;1827727;78;20900;-58
2022/08/18 02:59:54;;;;;;;10.10;7.37;;;;;;;18.29;100.00;97718.60;1810989;78;20936;-59
2022/08/18 03:02:21;;;;;;;9.40;6.58;;;;;;;18.27;100.00;97728.22;1814335;78;21067;-58
2022/08/18 03:04:48;;;;;;;8.63;7.50;;;;;;;18.23;100.00;97732.76;1812891;78;21347;-58
2022/08/18 03:07:14;;;;;;;9.10;8.03;;;;;;;18.21;100.00;97735.00;1823773;78;20913;-59
2022/08/18 03:09:41;;;;;;;11.85;7.92;;;;;;;18.23;100.00;97723.27;1813408;78;21370;-58
2022/08/18 03:12:08;;;;;;;13.50;7.60;;;;;;;18.26;100.00;97733.40;1827915;77;20876;-60
2022/08/18 03:14:36;;;;;;;9.68;7.00;;;;;;;18.26;100.00;97736.11;1825372;78;21103;-58
2022/08/18 03:17:04;;;;;;;7.83;7.03;;;;;;;18.25;100.00;97739.38;1822512;78;20932;-58
2022/08/18 03:19:32;;;;;;;8.98;6.75;;;;;;;18.26;100.00;97737.47;1824269;78;21506;-59
2022/08/18 03:21:58;;;;;;;9.98;7.53;;;;;;;18.29;100.00;97736.78;1824765;78;21002;-58
2022/08/18 03:24:26;;;;;;;9.73;7.42;;;;;;;18.32;100.00;97737.45;1819934;78;20960;-58
2022/08/18 03:26:55;;;;;;;9.25;7.47;;;;;;;18.34;100.00;97737.89;1820337;78;21161;-59
2022/08/18 03:29:22;;;;;;;9.05;7.22;;;;;;;18.35;100.00;97744.87;1820868;78;21392;-58
2022/08/18 03:31:49;;;;;;;10.28;7.85;;;;;;;18.37;100.00;97748.05;1810820;78;20879;-58
2022/08/18 03:34:20;;;;;;;10.23;7.85;;;;;;;18.41;100.00;97752.44;1821226;78;20979;-58
2022/08/18 03:36:49;;;;;;;10.65;7.42;;;;;;;18.44;100.00;97757.73;1811819;78;20871;-58
2022/08/18 03:39:15;;;;;;;11.33;8.30;;;;;;;18.47;100.00;97751.63;1824448;78;21097;-58
2022/08/18 03:41:43;;;;;;;11.18;7.25;;;;;;;18.50;100.00;97749.59;1828591;78;20928;-59
2022/08/18 03:44:11;;;;;;;12.53;8.08;;;;;;;18.50;100.00;97746.88;1812659;77;21356;-58
2022/08/18 03:46:40;;;;;;;13.90;8.33;;;;;;;18.50;100.00;97755.02;1826801;78;20884;-58
2022/08/18 03:49:07;;;;;;;10.65;8.30;;;;;;;18.53;100.00;97755.69;1827734;78;21054;-58
2022/08/18 03:51:34;;;;;;;17.80;9.53;;;;;;;18.54;100.00;97745.04;1819782;78;21096;-58
2022/08/18 03:54:02;;;;;;;12.53;9.73;;;;;;;18.54;100.00;97742.89;1825497;78;20877;-58
2022/08/18 03:56:34;;;;;;;13.22;9.15;;;;;;;18.51;100.00;97738.18;1824297;78;20877;-58
2022/08/18 03:59:11;;;;;;;10.82;8.73;;;;;;;18.47;100.00;97734.00;1828242;78;21399;-58
2022/08/18 04:01:40;;;;;;;11.97;9.43;;;;;;;18.40;100.00;97734.58;1817870;78;20877;-58
2022/08/18 04:04:10;;;;;;;11.97;9.65;;;;;;;18.38;100.00;97740.13;1826692;78;21783;-58
2022/08/18 04:06:45;;;;;;;13.90;9.23;;;;;;;18.36;100.00;97737.77;1808796;78;20876;-58
2022/08/18 04:09:13;;;;;;;12.40;8.77;;;;;;;18.39;100.00;97739.77;1814242;78;20954;-59
2022/08/18 04:11:42;;;;;;;11.63;8.85;;;;;;;18.41;100.00;97741.59;1820216;78;21591;-58
2022/08/18 04:14:11;;;;;;;10.65;8.55;;;;;;;18.40;100.00;97735.94;1825487;78;20949;-58
2022/08/18 04:16:39;;;;;;;12.45;8.93;;;;;;;18.39;100.00;97743.07;1824747;78;21891;-59
2022/08/18 04:19:06;;;;;;;12.80;9.05;;;;;;;18.37;100.00;97742.05;1812153;78;20956;-58
2022/08/18 04:21:35;;;;;;;11.03;8.90;;;;;;;18.39;100.00;97744.42;1828668;78;20932;-58
2022/08/18 04:24:04;;;;;;;10.58;8.15;;;;;;;18.38;100.00;97737.41;1821357;78;20871;-58
2022/08/18 04:26:35;;;;;;;12.43;8.20;;;;;;;18.40;100.00;97743.27;1816243;78;20924;-58
2022/08/18 04:29:03;;;;;;;13.00;8.15;;;;;;;18.43;100.00;97742.59;1816832;78;21785;-58
2022/08/18 04:31:31;;;;;;;9.95;8.55;;;;;;;18.46;100.00;97744.65;1804809;78;20978;-58
2022/08/18 04:33:58;;;;;;;12.43;8.45;;;;;;;18.51;100.00;97747.11;1817505;78;21424;-58
2022/08/18 04:36:25;;;;;;;11.55;8.70;;;;;;;18.61;100.00;97749.30;1824553;78;20947;-58
2022/08/18 04:38:52;;;;;;;12.78;8.45;;;;;;;18.70;100.00;97742.37;1823882;78;21030;-58
2022/08/18 04:41:18;;;;;;;8.30;7.50;;;;;;;18.77;100.00;97741.95;1821486;77;21226;-58
2022/08/18 04:43:46;;;;;;;11.25;9.00;;;;;;;18.83;100.00;97748.72;1820224;77;20955;-58
2022/08/18 04:46:13;;;;;;;10.50;8.68;;;;;;;18.86;100.00;97741.80;1824062;78;20995;-59
2022/08/18 04:48:40;;;;;;;11.05;8.45;;;;;;;18.91;100.00;97738.24;1817672;78;22027;-58
2022/08/18 04:51:12;;;;;;;12.23;8.78;;;;;;;18.92;100.00;97738.48;1822888;78;21038;-58
2022/08/18 04:53:44;;;;;;;12.40;7.70;;;;;;;18.97;100.00;97739.58;1823211;78;21191;-58
2022/08/18 04:56:25;;;;;;;10.50;7.62;;;;;;;19.01;100.00;97743.16;1827589;78;20888;-59
2022/08/18 04:58:51;;;;;;;11.68;8.85;;;;;;;19.03;100.00;97744.18;1813771;78;20998;-59
2022/08/18 05:01:24;;;;;;;11.22;8.58;;;;;;;19.08;100.00;97750.11;1818671;78;21524;-59
2022/08/18 05:03:51;;;;;;;8.98;8.05;;;;;;;19.16;100.00;97746.21;1823716;78;21529;-60
2022/08/18 05:06:19;;;;;;;10.45;7.90;;;;;;;19.26;100.00;97749.76;1829180;78;22111;-59
2022/08/18 05:08:48;;;;;;;12.30;8.18;;;;;;;19.36;100.00;97750.02;1815043;78;20955;-60
2022/08/18 05:11:15;;;;;;;13.13;8.23;;;;;;;19.43;100.00;97748.06;1803593;78;21027;-60
2022/08/18 05:13:42;;;;;;;10.40;7.85;;;;;;;19.52;100.00;97750.81;1822952;77;21018;-60
2022/08/18 05:16:09;;;;;;;15.68;8.45;;;;;;;19.57;100.00;97746.44;1816159;78;21497;-60
2022/08/18 05:18:39;;;;;;;12.23;8.35;;;;;;;19.61;100.00;97748.68;1818125;78;21239;-60
2022/08/18 05:21:13;;;;;;;11.73;8.00;;;;;;;19.68;100.00;97750.76;1833269;78;21534;-58
2022/08/18 05:23:37;;;;;;;12.43;7.80;;;;;;;19.71;100.00;97750.83;1824503;77;21090;-59
2022/08/18 05:26:04;;;;;;;9.78;8.13;;;;;;;19.70;100.00;97743.04;1826000;78;21474;-59
2022/08/18 05:28:36;;;;;;;10.20;8.65;;;;;;;19.69;100.00;97743.60;1820293;78;36369;-58
2022/08/18 05:31:13;;;;;;;9.20;7.90;;;;;;;19.72;100.00;97737.47;1825154;78;21105;-60
2022/08/18 05:33:40;;;;;;;10.93;7.85;;;;;;;19.77;100.00;97742.63;1809199;77;20868;-59
2022/08/18 05:36:27;;;;;;;13.15;8.38;;;;;;;19.86;100.00;97741.05;1809645;78;21506;-60
2022/08/18 05:39:07;;;;;;;12.20;8.80;;;;;;;19.95;100.00;97741.62;1828756;78;21006;-59
2022/08/18 05:41:37;;;;;;;13.22;9.30;;;;;;;20.06;100.00;97741.30;1814405;78;20965;-60
2022/08/18 05:44:06;;;;;;;12.30;8.43;;;;;;;20.13;100.00;97736.00;1833977;77;21192;-59
2022/08/18 05:46:55;;;;;;;10.85;8.75;;;;;;;20.21;100.00;97738.27;1819646;78;21104;-59
2022/08/18 05:49:23;;;;;;;12.05;8.45;;;;;;;20.26;100.00;97736.65;1823566;77;20952;-59
2022/08/18 05:52:06;;;;;;;12.10;8.73;;;;;;;20.33;100.00;97739.51;1818269;78;21504;-60
2022/08/18 05:57:24;;;;;;;10.50;7.47;;;;;;;20.41;100.00;97743.38;1819874;77;21051;-61
2022/08/18 05:59:51;;;;;;;12.03;7.90;;;;;;;20.47;100.00;97745.81;1784331;78;21030;-61
2022/08/18 06:02:35;;;;;;;8.85;7.72;;;;;;;20.54;99.90;97748.67;1808780;77;20971;-61
2022/08/18 06:05:24;;;;;;;12.73;7.78;;;;;;;20.63;99.94;97750.02;1817824;77;21106;-61
2022/08/18 06:08:02;;;;;;;10.13;7.70;;;;;;;20.75;99.36;97750.41;1822927;77;21007;-60
2022/08/18 06:10:30;;;;;;;11.40;7.80;;;;;;;20.85;98.77;97757.96;1809664;77;21227;-61
2022/08/18 06:12:59;;;;;;;11.95;8.00;;;;;;;20.94;98.40;97763.38;1790789;79;20952;-62
2022/08/18 06:15:48;;;;;;;12.95;7.17;;;;;;;21.02;97.58;97768.37;1808514;77;21047;-62
2022/08/18 06:18:57;;;;;;;8.45;7.50;;;;;;;21.09;96.88;97763.08;1747604;80;20986;-61
2022/08/18 06:21:49;;;;;;;15.05;8.30;;;;;;;21.18;95.90;97766.34;1807456;77;21007;-62
2022/08/18 06:24:36;;;;;;;11.03;7.72;;;;;;;21.26;94.88;97770.77;1816598;78;21071;-60
2022/08/18 06:27:26;;;;;;;9.05;7.33;;;;;;;21.34;94.36;97780.60;1819771;77;21114;-61
2022/08/18 06:30:21;;;;;;;10.80;6.92;;;;;;;21.40;94.05;97780.52;1806462;78;20976;-62
2022/08/18 06:33:17;;;;;;;10.93;7.13;;;;;;;21.47;93.47;97778.48;1786463;78;20925;-61
2022/08/18 06:35:50;;;;;;;10.93;7.20;;;;;;;21.55;93.35;97783.66;1741383;80;21165;-62
2022/08/18 06:38:52;;;;;;;12.78;6.85;;;;;;;21.63;92.91;97770.36;1804647;78;21909;-61
2022/08/18 06:41:30;;;;;;;11.63;7.28;;;;;;;21.71;92.41;97767.16;1801905;77;20880;-63
2022/08/18 06:44:05;;;;;;;9.68;7.40;;;;;;;21.78;91.71;97770.78;1808327;77;20971;-62
2022/08/18 06:47:02;;;;;;;13.25;7.28;;;;;;;21.85;91.06;97773.42;1802403;77;21043;-63
2022/08/18 06:49:45;;;;;;;13.60;7.55;;;;;;;21.91;90.54;97773.30;1754145;80;21127;-63
2022/08/18 06:52:23;;;;;;;14.07;7.03;;;;;;;21.99;90.14;97773.61;1812102;77;21178;-62
2022/08/18 06:54:50;;;;;;;10.55;6.65;;;;;;;22.08;89.41;97779.56;1815569;77;21519;-62
2022/08/18 06:57:28;;;;;;;10.75;6.70;;;;;;;22.17;88.42;97778.70;1815748;77;21282;-62
2022/08/18 06:59:59;;;;;;;10.48;6.40;;;;;;;22.26;88.39;97780.56;1802922;77;21102;-63
2022/08/18 07:02:50;;;;;;;9.85;6.87;;;;;;;22.35;87.64;97780.48;1801405;77;21067;-63
2022/08/18 07:05:29;;;;;;;8.80;7.20;;;;;;;22.44;87.09;97783.74;1809772;77;21228;-61
2022/08/18 07:08:23;;;;;;;12.65;7.12;;;;;;;22.53;86.12;97780.71;1806634;77;21116;-60
2022/08/18 07:24:50;;;;;;;11.97;7.15;;;;;;;23.03;82.46;97799.19;1807390;77;20965;-63
2022/08/18 07:27:42;;;;;;;9.18;7.00;;;;;;;23.09;83.06;97800.43;1815548;77;21062;-63
2022/08/18 07:30:20;;;;;;;11.80;6.87;;;;;;;23.16;83.38;97799.70;1810514;77;21110;-62
2022/08/18 07:33:01;;;;;;;12.88;7.17;;;;;;;23.24;82.35;97795.09;1758288;79;21281;-61
2022/08/18 07:35:39;;;;;;;9.23;6.60;;;;;;;23.32;81.74;97794.00;1813815;77;21006;-62
2022/08/18 07:38:23;;;;;;;12.82;6.50;;;;;;;23.42;81.70;97785.11;1802742;77;21624;-62
2022/08/18 07:41:04;;;;;;;15.78;6.85;;;;;;;23.51;81.59;97782.84;1806115;77;21151;-61
2022/08/18 07:43:54;;;;;;;11.33;6.65;;;;;;;23.59;80.22;97774.33;1802390;77;21051;-61
2022/08/18 07:46:29;;;;;;;18.92;7.25;;;;;;;23.66;79.60;97773.58;1816128;77;22006;-61
2022/08/18 07:48:57;;;;;;;12.93;7.30;;;;;;;23.71;78.81;97777.33;1805359;77;21048;-61
2022/08/18 07:51:42;;;;;;;13.60;6.70;;;;;;;23.75;79.17;97774.81;1768312;79;21015;-61
2022/08/18 07:54:27;;;;;;;12.10;6.15;;;;;;;23.81;78.93;97777.98;1760774;80;21122;-61
2022/08/18 07:57:12;;;;;;;17.35;6.70;;;;;;;23.88;78.41;97778.03;1755270;80;21083;-62
2022/08/18 08:00:05;;;;;;;13.72;6.53;;;;;;;23.97;77.53;97775.73;1761302;79;21168;-61
2022/08/18 08:03:00;;;;;;;13.78;7.08;;;;;;;24.07;77.63;97782.45;1751186;80;21040;-62
2022/08/18 08:05:50;;;;;;;16.80;6.55;;;;;;;24.17;77.62;97782.49;1765562;79;21079;-61
2022/08/18 08:08:32;;;;;;;9.95;6.47;;;;;;;24.22;76.54;97782.13;1774238;79;21073;-62
2022/08/18 08:11:32;;;;;;;18.02;6.33;;;;;;;24.25;77.00;97781.37;1807908;77;21068;-62
2022/08/18 08:14:34;;;;;;;12.03;5.95;;;;;;;24.33;76.42;97784.92;1813053;77;21078;-62
2022/08/18 08:17:27;;;;;;;13.88;6.10;;;;;;;24.46;76.87;97791.03;1771633;77;21172;-62
2022/08/18 08:20:27;;;;;;;11.08;5.85;;;;;;;24.61;76.04;97793.24;1806638;77;21051;-61
2022/08/18 08:23:29;;;;;;;12.07;6.20;;;;;;;24.73;74.28;97786.62;1805888;77;21036;-61
2022/08/18 08:26:25;;;;;;;9.50;5.75;;;;;;;24.82;73.58;97787.06;1794858;78;21109;-61
2022/08/18 08:29:13;;;;;;;;;;;;;;;24.92;73.25;97793.13;1813394;77;21778;-62
2022/08/18 08:32:05;;;;;;;18.95;6.35;;;;;;;25.01;71.54;97795.69;1796777;78;20090;-61
2022/08/18 08:34:58;;;;;;;8.35;5.05;;;;;;;25.06;72.25;97801.39;1811672;77;21022;-62
2022/08/18 08:37:51;;;;;;;12.10;6.00;;;;;;;25.18;72.28;97798.86;1816447;77;21513;-62
2022/08/18 08:40:55;;;;;;;9.28;5.50;;;;;;;25.28;72.10;97794.74;1811495;77;21503;-62
2022/08/18 08:43:45;;;;;;;11.15;5.55;;;;;;;25.35;70.79;97796.70;1764918;79;21247;-62
2022/08/18 08:46:28;;;;;;;9.58;5.58;;;;;;;25.38;70.55;97802.77;1808004;77;21599;-62
2022/08/18 08:49:14;;;;;;;11.65;6.05;;;;;;;25.43;70.58;97799.06;1805336;78;21564;-61
2022/08/18 08:51:55;;;;;;;9.08;5.67;;;;;;;25.47;69.81;97801.23;1789464;77;21007;-62
2022/08/18 08:54:24;;;;;;;10.45;5.72;;;;;;;25.51;69.58;97793.78;1809327;77;21061;-61
2022/08/18 08:56:53;;;;;;;9.88;5.40;;;;;;;25.54;69.26;97790.27;1801607;77;21231;-62
2022/08/18 08:59:20;;;;;;;10.03;5.40;;;;;;;25.64;70.08;97796.34;1801784;77;20944;-62
2022/08/18 09:02:27;;;;;;;9.55;5.17;;;;;;;25.76;69.55;97794.56;1812753;77;21223;-62
2022/08/18 09:05:18;;;;;;;;;;;;;;;25.89;68.91;97798.23;1815645;77;21053;-61
2022/08/18 09:08:01;;;;;;;15.28;6.12;;;;;;;26.02;67.83;97795.29;1810431;77;20208;-62
2022/08/18 09:10:58;;;;;;;15.70;6.05;;;;;;;26.09;68.40;97798.02;1799507;77;21247;-62
2022/08/18 09:14:10;;;;;;;8.73;5.40;;;;;;;26.21;68.13;97792.13;1804174;77;20975;-61
2022/08/18 09:17:02;;;;;;;9.45;5.60;;;;;;;26.30;67.60;97790.53;1805334;77;21073;-63
2022/08/18 09:19:58;;;;;;;10.85;5.75;;;;;;;26.39;66.85;97792.84;1807127;77;21576;-62
2022/08/18 09:22:34;;;;;;;12.75;5.45;;;;;;;26.42;67.22;97796.17;1763457;79;21065;-61
2022/08/18 09:25:00;;;;;;;11.57;5.80;;;;;;;26.44;66.40;97786.94;1733975;81;21077;-61
2022/08/18 09:27:43;;;;;;;12.15;5.90;;;;;;;26.48;66.71;97787.69;1725827;80;21079;-61
2022/08/18 09:30:46;;;;;;;8.30;5.00;;;;;;;26.52;66.71;97796.69;1737857;80;21011;-61
2022/08/18 09:33:39;;;;;;;9.20;4.92;;;;;;;26.59;66.94;97787.05;1797720;77;21063;-63
2022/08/18 09:36:34;;;;;;;9.78;5.47;;;;;;;26.73;66.87;97791.13;1811157;77;21113;-60
2022/08/18 09:42:33;;;;;;;16.45;6.15;;;;;;;26.88;64.15;97793.98;1747567;80;21213;-62
2022/08/18 09:45:03;;;;;;;11.97;5.22;;;;;;;26.88;63.47;97800.86;1805435;77;21052;-61
2022/08/18 09:47:39;;;;;;;10.50;4.97;;;;;;;26.89;64.34;97799.69;1802121;77;21406;-61
2022/08/18 09:50:18;;;;;;;12.25;5.53;;;;;;;26.97;62.34;97795.69;1791855;78;21578;-62
2022/08/18 09:52:52;;;;;;;10.60;5.22;;;;;;;26.92;63.11;97803.59;1704943;79;21878;-65
2022/08/18 09:55:27;;;;;;;14.43;5.83;;;;;;;27.01;64.63;97799.22;1768454;80;21064;-62
2022/08/18 09:58:15;;;;;;;9.33;4.78;;;;;;;27.18;63.83;97795.38;1753281;79;21039;-62
2022/08/18 10:00:44;;;;;;;8.30;4.70;;;;;;;27.35;63.53;97801.31;1746149;78;21099;-62
2022/08/18 10:03:23;;;;;;;10.05;4.87;;;;;;;27.55;62.99;97795.50;1717993;81;21052;-63
2022/08/18 10:06:07;;;;;;;6.92;4.70;;;;;;;27.71;62.24;97798.48;1748235;80;21266;-62
2022/08/18 10:08:46;;;;;;;10.25;4.75;;;;;;;27.86;61.66;97797.17;1737107;81;21549;-60
2022/08/18 10:11:25;;;;;;;9.55;4.35;;;;;;;27.98;61.63;97796.63;1668735;80;21107;-60
2022/08/18 10:14:29;;;;;;;11.03;4.45;;;;;;;28.02;60.61;97805.69;1703285;82;21151;-62
2022/08/18 10:17:31;;;;;;;13.20;4.47;;;;;;;27.94;59.84;97803.37;1686086;82;21156;-61
2022/08/18 10:20:06;;;;;;;9.70;4.40;;;;;;;27.87;59.78;97811.11;1694954;82;21272;-63
2022/08/18 10:22:38;;;;;;;7.62;4.20;;;;;;;27.93;58.71;97802.61;1693648;82;21099;-62
2022/08/18 10:25:08;;;;;;;7.97;4.50;;;;;;;27.99;58.39;97800.99;1688992;82;21105;-62
2022/08/18 10:27:50;;;;;;;7.53;4.45;;;;;;;28.11;57.07;97803.23;1734351;81;21546;-62
2022/08/18 10:30:38;;;;;;;8.15;4.53;;;;;;;28.18;57.57;97801.77;1729756;81;21592;-62
2022/08/18 10:33:07;;;;;;;11.57;4.78;;;;;;;28.25;59.11;97797.56;1729946;81;21878;-62
2022/08/18 10:35:41;;;;;;;11.40;5.00;;;;;;;28.36;57.86;97794.66;1702049;82;21080;-63
2022/08/18 10:38:22;;;;;;;10.82;4.87;;;;;;;28.34;58.66;97807.48;1727294;81;25033;-64
2022/08/18 10:41:03;;;;;;;10.25;4.80;;;;;;;28.40;58.10;97807.82;1727102;81;21128;-62
2022/08/18 10:43:40;;;;;;;14.75;4.70;;;;;;;28.42;57.33;97808.97;1730833;81;21495;-63
2022/08/18 10:46:21;;;;;;;6.35;4.12;;;;;;;28.41;55.75;97805.23;1727723;81;22136;-61
2022/08/18 10:49:08;;;;;;;7.55;4.10;;;;;;;28.37;57.43;97808.05;1735375;81;21023;-62
2022/08/18 10:52:06;;;;;;;11.00;4.22;;;;;;;28.48;58.25;97803.02;1732494;81;21051;-61
2022/08/18 10:54:58;;;;;;;7.25;4.65;;;;;;;28.62;57.43;97812.50;1726669;81;21091;-62
2022/08/18 10:58:11;;;;;;;6.45;4.35;;;;;;;28.63;54.96;97811.30;1711669;81;21177;-61
2022/08/18 11:01:03;;;;;;;7.03;4.60;;;;;;;28.51;55.71;97813.19;1750170;79;21054;-61
2022/08/18 11:03:49;;;;;;;8.63;4.75;;;;;;;28.46;56.50;97807.53;1754974;80;21087;-61
2022/08/18 11:06:24;;;;;;;9.98;4.22;;;;;;;28.46;55.71;97808.33;1737747;81;21031;-62
2022/08/18 11:09:00;;;;;;;11.10;4.37;;;;;;;28.52;56.40;97802.36;1696897;82;21105;-60
2022/08/18 11:11:42;;;;;;;7.55;3.98;;;;;;;28.60;55.93;97814.28;1761155;80;21553;-63
2022/08/18 11:14:36;;;;;;;9.58;4.10;;;;;;;28.68;54.75;97810.84;1757572;79;21463;-61
2022/08/18 11:17:16;;;;;;;8.75;3.80;;;;;;;28.71;54.86;97809.40;1751358;80;20984;-62
2022/08/18 11:19:52;;;;;;;7.08;4.05;;;;;;;28.80;55.44;97814.42;1749319;80;20969;-61
2022/08/18 11:22:36;;;;;;;8.05;4.50;;;;;;;28.95;55.39;97807.50;1746361;80;20983;-61
2022/08/18 11:25:21;;;;;;;9.45;4.40;;;;;;;29.15;55.63;97809.78;1759782;78;20952;-61
2022/08/18 11:27:55;;;;;;;11.57;4.10;;;;;;;29.17;54.51;97814.28;1769093;79;20993;-62
2022/08/18 11:30:30;;;;;;;10.25;4.20;;;;;;;29.14;53.90;97819.23;1762056;80;21405;-62
2022/08/18 11:33:01;;;;;;;12.10;4.10;;;;;;;29.16;53.86;97811.95;1750806;80;21013;-62
2022/08/18 11:35:36;;;;;;;6.95;3.87;;;;;;;29.31;53.55;97808.58;1753594;80;21067;-61
2022/08/18 11:38:12;;;;;;;12.37;4.60;;;;;;;29.48;53.43;97809.49;1744367;80;21127;-61
2022/08/18 11:40:54;;;;;;;8.25;4.17;;;;;;;29.60;52.83;97805.55;1754664;80;21107;-62
2022/08/18 11:43:35;;;;;;;9.55;3.75;;;;;;;29.68;51.91;97811.70;1762510;78;21486;-62
2022/08/18 11:46:29;;;;;;;7.35;4.05;;;;;;;29.70;52.20;97813.47;1745275;80;21055;-62
2022/08/18 11:49:03;;;;;;;7.83;3.40;;;;;;;29.90;52.07;97812.14;1753552;79;21577;-62
2022/08/18 11:51:43;;;;;;;10.35;4.40;;;;;;;30.03;49.66;97815.87;1755101;80;21068;-62
2022/08/18 11:54:21;;;;;;;6.83;3.95;;;;;;;29.87;50.91;97817.12;1720938;82;21186;-62
2022/08/18 11:57:01;;;;;;;6.22;3.83;;;;;;;29.65;51.48;97807.80;1734423;81;28183;-61
2022/08/18 11:59:35;;;;;;;8.45;3.83;;;;;;;29.43;51.93;97819.03;1668848;81;21054;-61
2022/08/18 12:02:05;;;;;;;8.08;3.70;;;;;;;29.47;53.03;97822.50;1695024;83;28071;-62
2022/08/18 12:04:41;;;;;;;8.48;3.80;;;;;;;29.73;52.31;97813.39;1719512;81;21561;-62
2022/08/18 12:07:22;;;;;;;8.10;3.75;;;;;;;30.03;51.36;97818.00;1753363;78;21268;-61
2022/08/18 12:10:21;;;;;;;8.90;3.98;;;;;;;30.28;49.23;97817.55;1745575;79;20984;-61
2022/08/18 12:12:53;;;;;;;7.58;3.60;;;;;;;30.48;49.36;97812.81;1750216;80;20997;-61
2022/08/18 12:15:32;;;;;;;6.05;3.65;;;;;;;30.66;46.44;97817.40;1747485;80;21113;-61
2022/08/18 12:18:12;;;;;;;10.65;3.80;;;;;;;30.66;46.21;97811.09;1753015;80;21054;-62
2022/08/18 12:20:43;;;;;;;6.15;3.70;;;;;;;30.63;46.71;97809.16;1752905;80;21805;-62
2022/08/18 12:23:18;;;;;;;6.83;3.65;;;;;;;30.65;47.06;97813.06;1737260;81;21651;-61
2022/08/18 12:25:53;;;;;;;9.30;3.50;;;;;;;30.81;47.72;97806.80;1713335;81;21043;-62
2022/08/18 12:28:30;;;;;;;8.60;4.05;;;;;;;30.96;47.22;97813.61;1729974;81;21578;-62